Latest Coastal Weather Observations for Maningrida Airport

IDD60701

Issued at 10:05 am CST Wednesday 26 November 2014 (issued every 10 minutes, with the page automatically refreshed every 10 minutes)

About coastal observations | Map of coastal stations | Coastal observations for NT | Marine services | Other Formats
Station Details ID: 014405 Name: MANINGRIDA AIRPORT Lat: -12.06 Lon: 134.23 Height: 28.1 m
Data from the previous 72 hours. | See also: Recent months at Maningrida Airport
Date/Time
CST
Temp

°C
Wind Pressure Rain
since 9am
mm
Weather Cloud Vis
km
Sea
Height
m
Swell
Dir
 
Speed
knots
Gust
knots
hPa Trend Height
m
Period
s
Dir
26/10:00am 32.8 E 9 17 1008.8 - 0.0 - Partly cloudy 10 - - - -
26/09:30am 32.2 E 8 13 1008.8 - 0.0 - - 10 - - - -
26/09:00am 31.0 ESE 7 11 1008.8 - 0.0 - Mostly cloudy 10 - - - -
26/08:30am 29.7 ESE 7 11 1008.8 - 0.0 - - 10 - - - -
26/08:00am 29.7 SE 8 11 1008.4 - 0.0 - - 10 - - - -
26/07:30am 28.6 SSE 6 8 1008.0 - 0.0 - - 10 - - - -
26/07:00am 27.2 SSE 4 6 1007.6 - 0.0 - - 10 - - - -
26/06:30am 25.8 SSE 5 6 1007.3 - 0.0 - - 10 - - - -
26/06:00am 25.6 S 4 5 1006.9 - 0.0 - - 10 - - - -
26/05:30am 25.7 S 4 5 1006.5 - 0.0 - - 10 - - - -
26/05:00am 25.9 SSW 4 5 1006.3 - 0.0 - - 10 - - - -
26/04:30am 26.1 S 3 5 1006.3 - 0.0 - Partly cloudy 10 - - - -
26/04:00am 26.0 S 4 5 1006.2 - 0.0 - - 10 - - - -
26/03:30am 25.9 SSW 4 5 1005.9 - 0.0 - - 10 - - - -
26/03:00am 26.3 S 4 5 1006.0 - 0.0 - - 10 - - - -
26/02:30am 26.5 S 3 4 1006.2 - 0.0 - Partly cloudy 10 - - - -
26/02:00am 26.7 S 4 6 1006.5 - 0.0 - Partly cloudy 10 - - - -
26/01:30am 26.7 S 4 6 1006.7 - 0.0 - Partly cloudy 10 - - - -
26/01:00am 27.1 S 4 6 1007.1 - 0.0 - Partly cloudy 10 - - - -
26/12:30am 27.1 SSW 3 5 1007.5 - 0.0 - Partly cloudy 10 - - - -
26/12:00am 27.0 S 3 5 1007.7 - 0.0 - Mostly clear 10 - - - -
 
Date/Time
CST
Temp

°C
Wind Pressure Rain
since 9am
mm
Weather Cloud Vis
km
Sea
Height
m
Swell
Dir
 
Speed
knots
Gust
knots
hPa Trend Height
m
Period
s
Dir
25/11:30pm 27.5 E 3 4 1007.9 - 0.0 - Partly cloudy 10 - - - -
25/11:00pm 28.1 CALM 0 0 1008.3 - 0.0 - Partly cloudy 10 - - - -
25/10:30pm 28.3 CALM 0 3 1008.2 - 0.0 - Partly cloudy 10 - - - -
25/10:00pm 28.4 NE 3 4 1008.2 - 0.0 - - 10 - - - -
25/09:30pm 28.6 NNE 6 8 1007.8 - 0.0 - - 10 - - - -
25/09:00pm 28.7 NNE 7 10 1007.9 - 0.0 - Partly cloudy 10 - - - -
25/08:30pm 28.7 NNE 5 7 1007.8 - 0.0 - Partly cloudy 10 - - - -
25/08:00pm 28.9 NNE 8 10 1007.6 - 0.0 - Partly cloudy 10 - - - -
25/07:30pm 29.0 N 8 13 1007.1 - 0.0 - Partly cloudy 10 - - - -
25/07:00pm 29.0 NNE 9 12 1006.4 - 0.0 - - 10 - - - -
25/06:30pm 29.2 N 11 14 1006.1 - 0.0 - - 10 - - - -
25/06:00pm 29.4 N 10 13 1006.2 - 0.0 - - 10 - - - -
25/05:30pm 29.5 N 10 13 1006.2 - 0.0 - - 10 - - - -
25/05:00pm 29.8 NNE 11 17 1005.7 - 0.0 - - 10 - - - -
25/04:30pm 31.3 NNE 12 17 1005.3 - 0.0 - - 10 - - - -
25/04:00pm 32.3 NNE 12 18 1005.1 - 0.0 - - 10 - - - -
25/03:30pm 32.2 NNE 13 19 1005.1 - 0.0 - - 10 - - - -
25/03:00pm 32.8 NE 13 18 1005.5 - 0.0 - - 10 - - - -
25/02:55pm 33.4 NNE 12 17 1005.6 - 0.0 - - 8 - - - -
25/02:36pm 33.5 NNE 11 16 1005.8 - 0.0 - - 3 - - - -
25/02:30pm 32.5 NNE 10 16 1006.0 - 0.0 - - 10 - - - -
25/02:00pm 32.8 NE 12 17 1006.6 - 0.0 - Partly cloudy 10 - - - -
25/01:30pm 33.4 NE 12 17 1007.0 - 0.0 - Partly cloudy 10 - - - -
25/01:00pm 33.4 N 9 13 1007.6 - 0.0 - - 10 - - - -
25/12:30pm 32.6 NNE 11 15 1007.9 - 0.0 - Partly cloudy 10 - - - -
25/12:00pm 33.0 NNE 8 13 1008.3 - 0.0 - Mostly clear 10 - - - -
25/11:30am 31.8 NNE 10 14 1008.4 - 0.0 - Partly cloudy 10 - - - -
25/11:00am 32.2 N 11 14 1008.7 - 0.0 - Partly cloudy 10 - - - -
25/10:30am 31.7 N 9 14 1008.9 - 0.0 - Partly cloudy 10 - - - -
25/10:00am 31.0 N 10 14 1009.0 - 0.0 - Partly cloudy 10 - - - -
25/09:30am 29.8 N 7 8 1009.2 - 0.0 - Partly cloudy 10 - - - -
25/09:00am 30.3 N 5 9 1009.1 - 0.0 - Cloudy 10 - - - -
25/08:30am 30.2 NE 5 7 1009.2 - 0.0 - Partly cloudy 10 - - - -
25/08:00am 29.3 SSE 4 5 1009.0 - 0.0 - Partly cloudy 10 - - - -
25/07:30am 27.6 SSE 4 5 1009.1 - 0.0 - Partly cloudy 10 - - - -
25/07:00am 27.1 SSE 4 5 1008.8 - 0.0 - Partly cloudy 10 - - - -
25/06:30am 26.2 SSE 4 5 1008.5 - 0.0 - - 10 - - - -
25/06:00am 25.9 SSE 5 5 1008.0 - 0.0 - - 10 - - - -
25/05:30am 26.1 SE 4 5 1007.6 - 0.0 - - 10 - - - -
25/05:00am 26.4 ESE 3 4 1007.3 - 0.0 - Partly cloudy 10 - - - -
25/04:30am 26.4 SSE 3 3 1007.4 - 0.0 - Partly cloudy 10 - - - -
25/04:00am 26.3 SSE 4 5 1007.5 - 0.0 - - 10 - - - -
25/03:30am 26.4 SE 3 4 1007.2 - 0.0 - - 10 - - - -
25/03:00am 26.3 SE 3 4 1007.5 - 0.0 - Mostly clear 10 - - - -
25/02:30am 26.5 SSE 1 3 1007.5 - 0.0 - - 10 - - - -
25/02:00am 26.7 SSE 3 4 1008.1 - 0.0 - Partly cloudy 10 - - - -
25/01:30am 26.7 CALM 0 0 1008.2 - 0.0 - - 10 - - - -
25/01:00am 26.9 SSW 3 4 1008.7 - 0.0 - Partly cloudy 10 - - - -
25/12:51am 26.9 SSW 3 4 1008.9 - 0.0 - Partly cloudy 10 - - - -
25/12:36am 27.1 SSW 1 4 1009.0 - 0.0 - - 5 - - - -
25/12:30am 27.1 CALM 0 0 1008.9 - 0.0 - - 10 - - - -
25/12:00am 27.2 SSW 3 5 1009.2 - 0.0 - Mostly clear 10 - - - -
 
Date/Time
CST
Temp

°C
Wind Pressure Rain
since 9am
mm
Weather Cloud Vis
km
Sea
Height
m
Swell
Dir
 
Speed
knots
Gust
knots
hPa Trend Height
m
Period
s
Dir
24/11:30pm 27.6 WSW 3 4 1009.5 - 0.0 - Partly cloudy 10 - - - -
24/11:00pm 28.7 N 3 5 1009.6 - 0.0 - Partly cloudy 10 - - - -
24/10:30pm 28.7 N 4 5 1009.6 - 0.0 - Partly cloudy 10 - - - -
24/10:00pm 28.8 N 5 9 1009.5 - 0.0 - Partly cloudy 10 - - - -
24/09:30pm 28.8 N 7 9 1009.0 - 0.0 - - 10 - - - -
24/09:00pm 28.8 NNE 4 7 1009.1 - 0.0 - Partly cloudy 10 - - - -
24/08:30pm 28.7 NNE 6 8 1008.7 - 0.0 - Partly cloudy 10 - - - -
24/08:00pm 28.8 N 8 11 1008.1 - 0.0 - - 10 - - - -
24/07:30pm 28.9 NNE 9 11 1007.5 - 0.0 - - 10 - - - -
24/07:00pm 29.0 NNE 9 13 1007.1 - 0.0 - - 10 - - - -
24/06:30pm 29.2 N 10 13 1006.6 - 0.0 - - 10 - - - -
24/06:00pm 29.6 N 10 14 1006.4 - 0.0 - - 10 - - - -
24/05:30pm 30.1 N 11 15 1006.1 - 0.0 - - 10 - - - -
24/05:00pm 30.3 NNE 11 16 1006.0 - 0.0 - - 10 - - - -
24/04:30pm 31.3 N 12 16 1005.9 - 0.0 - - 10 - - - -
24/04:00pm 30.9 N 12 16 1006.2 - 0.0 - - 10 - - - -
24/03:30pm 32.0 N 12 16 1006.3 - 0.0 - - 10 - - - -
24/03:00pm 32.0 N 13 18 1006.7 - 0.0 - - 10 - - - -
24/02:30pm 33.2 N 12 16 1007.4 - 0.0 - - 10 - - - -
24/02:00pm 32.6 N 11 16 1008.1 - 0.0 - Partly cloudy 10 - - - -
24/01:30pm 32.6 N 13 18 1008.6 - 0.0 - Partly cloudy 10 - - - -
24/01:00pm 32.0 N 12 19 1009.2 - 0.0 - Partly cloudy 10 - - - -
24/12:30pm 31.6 N 12 17 1009.5 - 0.0 - Partly cloudy 10 - - - -
24/12:00pm 32.2 N 12 16 1010.0 - 0.0 - Mostly cloudy 10 - - - -
24/11:30am 31.7 N 11 14 1010.3 - 0.0 - Partly cloudy 10 - - - -
24/11:00am 31.8 NNE 9 14 1010.6 - 0.0 - Partly cloudy 10 - - - -
24/10:30am 31.0 N 10 12 1010.8 - 0.0 - Partly cloudy 10 - - - -
24/10:00am 31.9 NE 7 11 1010.6 - 0.0 - Partly cloudy 10 - - - -
24/09:30am 31.2 NE 7 11 1010.7 - 0.0 - Partly cloudy 10 - - - -
24/09:00am 31.1 NNE 8 12 1010.5 - 0.0 - Mostly clear 10 - - - -
24/08:30am 30.0 N 7 9 1010.2 - 0.0 - Partly cloudy 10 - - - -
24/08:00am 30.1 NNW 5 8 1009.9 - 0.0 - - 10 - - - -
24/07:30am 28.3 SW 4 5 1009.6 - 0.0 - - 10 - - - -
24/07:00am 26.6 S 3 4 1009.5 - 0.0 - - 10 - - - -
24/06:30am 25.5 S 2 4 1009.4 - 0.0 - - 10 - - - -
24/06:00am 25.1 CALM 0 0 1009.2 - 0.0 - - 10 - - - -
24/05:30am 25.4 CALM 0 0 1008.8 - 0.0 - - 10 - - - -
24/05:00am 25.3 CALM 0 0 1008.5 - 0.0 - Partly cloudy 10 - - - -
24/04:30am 25.7 CALM 0 0 1008.3 - 0.0 - Partly cloudy 10 - - - -
24/04:00am 25.9 CALM 0 0 1008.3 - 0.0 - - 10 - - - -
24/03:30am 27.1 NE 2 3 1008.1 - 0.0 - Partly cloudy 10 - - - -
24/03:00am 27.6 NE 3 4 1008.2 - 0.0 - Mostly clear 10 - - - -
24/02:30am 27.7 ENE 3 5 1008.6 - 0.0 - Partly cloudy 10 - - - -
24/02:00am 27.9 NE 4 7 1008.5 - 0.0 - Partly cloudy 10 - - - -
24/01:30am 28.0 ENE 4 6 1008.8 - 0.0 - Partly cloudy 10 - - - -
24/01:00am 28.3 NE 5 7 1009.1 - 0.0 - Partly cloudy 10 - - - -
24/12:30am 28.2 NE 5 8 1009.5 - 0.0 - Partly cloudy 10 - - - -
24/12:00am 28.0 NE 4 5 1009.7 - 0.0 - Mostly clear 10 - - - -
 
Date/Time
CST
Temp

°C
Wind Pressure Rain
since 9am
mm
Weather Cloud Vis
km
Sea
Height
m
Swell
Dir
 
Speed
knots
Gust
knots
hPa Trend Height
m
Period
s
Dir
23/11:30pm 28.1 NNE 5 7 1009.7 - 0.0 - Partly cloudy 10 - - - -
23/11:00pm 28.2 NE 5 7 1010.0 - 0.0 - Partly cloudy 10 - - - -
23/10:30pm 28.3 NE 5 7 1009.9 - 0.0 - Partly cloudy 10 - - - -
23/10:00pm 28.4 NE 5 7 1009.9 - 0.0 - Partly cloudy 10 - - - -
23/09:30pm 28.4 NE 5 7 1009.8 - 0.0 - Partly cloudy 10 - - - -
23/09:00pm 28.5 NNE 8 13 1009.3 - 0.0 - Mostly clear 10 - - - -
23/08:30pm 28.7 NNE 8 11 1008.9 - 0.0 - Partly cloudy 10 - - - -
23/08:00pm 28.6 NNE 8 12 1008.6 - 0.0 - Partly cloudy 10 - - - -
23/07:30pm 28.7 NNE 8 13 1008.3 - 0.0 - Partly cloudy 10 - - - -
23/07:00pm 28.8 NNE 9 13 1007.8 - 0.0 - Partly cloudy 10 - - - -
23/06:30pm 29.2 NNE 10 14 1007.7 - 0.0 - Partly cloudy 10 - - - -
23/06:00pm 29.7 NNE 11 16 1007.9 - 0.0 - - 10 - - - -
23/05:30pm 30.0 NNE 11 16 1007.9 - 0.0 - - 10 - - - -
23/05:00pm 30.5 NNE 11 18 1007.6 - 0.0 - - 10 - - - -
23/04:30pm 30.8 NNE 13 17 1007.6 - 0.0 - - 10 - - - -
23/04:00pm 31.6 NNE 12 16 1007.9 - 0.0 - - 10 - - - -
23/03:30pm 31.8 NNE 12 18 1008.1 - 0.0 - - 10 - - - -
23/03:00pm 32.4 NNE 13 18 1008.2 - 0.0 - - 10 - - - -
23/02:30pm 32.6 NE 11 13 1008.7 - 0.0 - - 10 - - - -
23/02:00pm 32.9 NE 11 17 1009.1 - 0.0 - - 10 - - - -
23/01:30pm 33.0 NE 13 17 1009.6 - 0.0 - - 10 - - - -
23/01:00pm 33.7 NE 11 19 1009.7 - 0.0 - - 10 - - - -
23/12:30pm 34.1 NE 12 17 1009.9 - 0.0 - - 10 - - - -
23/12:00pm 34.8 NE 11 16 1010.4 - 0.0 - - 10 - - - -
23/11:30am 34.3 ENE 9 15 1011.0 - 0.0 - - 10 - - - -
23/11:00am 33.8 E 10 14 1011.2 - 0.0 - - 10 - - - -
23/10:30am 33.1 NNE 9 15 1011.3 - 0.0 - - 10 - - - -

Other Formats:

Comma delimited format used in spreadsheet applications
http://www.bom.gov.au/fwo/IDD60701/IDD60701.95142.axf

JavaScript Object Notation format (JSON) in row-major order
http://www.bom.gov.au/fwo/IDD60701/IDD60701.95142.json